sensor_id;sensor_type;location;lat;lon;timestamp;P1;durP1;ratioP1;P2;durP2;ratioP2
73951;SDS011;62304;47.662;18.324;2024-01-16T00:01:57;7.17;;;2.27;;
73951;SDS011;62304;47.662;18.324;2024-01-16T00:05:00;8.85;;;2.80;;
73951;SDS011;62304;47.662;18.324;2024-01-16T00:08:04;7.32;;;2.17;;
73951;SDS011;62304;47.662;18.324;2024-01-16T00:11:08;7.75;;;2.50;;
73951;SDS011;62304;47.662;18.324;2024-01-16T00:14:11;4.80;;;1.60;;
73951;SDS011;62304;47.662;18.324;2024-01-16T00:17:14;5.28;;;1.75;;
73951;SDS011;62304;47.662;18.324;2024-01-16T00:20:17;3.87;;;1.30;;
73951;SDS011;62304;47.662;18.324;2024-01-16T00:23:21;4.97;;;1.35;;
73951;SDS011;62304;47.662;18.324;2024-01-16T00:26:24;7.07;;;1.60;;
73951;SDS011;62304;47.662;18.324;2024-01-16T00:29:31;1.30;;;0.30;;
73951;SDS011;62304;47.662;18.324;2024-01-16T00:32:36;3.67;;;1.08;;
73951;SDS011;62304;47.662;18.324;2024-01-16T00:35:39;4.05;;;1.40;;
73951;SDS011;62304;47.662;18.324;2024-01-16T00:38:42;4.10;;;1.03;;
73951;SDS011;62304;47.662;18.324;2024-01-16T00:41:46;4.00;;;1.00;;
73951;SDS011;62304;47.662;18.324;2024-01-16T00:44:49;4.93;;;1.52;;
73951;SDS011;62304;47.662;18.324;2024-01-16T00:47:53;3.42;;;1.10;;
73951;SDS011;62304;47.662;18.324;2024-01-16T00:50:56;6.47;;;1.75;;
73951;SDS011;62304;47.662;18.324;2024-01-16T00:53:59;4.43;;;1.37;;
73951;SDS011;62304;47.662;18.324;2024-01-16T00:57:02;4.55;;;1.35;;
73951;SDS011;62304;47.662;18.324;2024-01-16T01:00:07;4.72;;;1.60;;
73951;SDS011;62304;47.662;18.324;2024-01-16T01:03:13;4.53;;;1.40;;
73951;SDS011;62304;47.662;18.324;2024-01-16T01:06:16;3.45;;;1.30;;
73951;SDS011;62304;47.662;18.324;2024-01-16T01:09:20;4.93;;;2.00;;
73951;SDS011;62304;47.662;18.324;2024-01-16T01:12:23;5.12;;;1.60;;
73951;SDS011;62304;47.662;18.324;2024-01-16T01:15:26;5.60;;;2.20;;
73951;SDS011;62304;47.662;18.324;2024-01-16T01:18:30;6.05;;;2.10;;
73951;SDS011;62304;47.662;18.324;2024-01-16T01:21:34;4.55;;;1.65;;
73951;SDS011;62304;47.662;18.324;2024-01-16T01:24:38;6.87;;;2.50;;
73951;SDS011;62304;47.662;18.324;2024-01-16T01:27:43;6.30;;;2.50;;
73951;SDS011;62304;47.662;18.324;2024-01-16T01:30:46;6.90;;;2.53;;
73951;SDS011;62304;47.662;18.324;2024-01-16T01:33:49;7.57;;;2.95;;
73951;SDS011;62304;47.662;18.324;2024-01-16T01:36:52;7.62;;;3.12;;
73951;SDS011;62304;47.662;18.324;2024-01-16T01:39:56;9.57;;;3.37;;
73951;SDS011;62304;47.662;18.324;2024-01-16T01:43:16;8.00;;;2.97;;
73951;SDS011;62304;47.662;18.324;2024-01-16T01:46:20;13.07;;;3.67;;
73951;SDS011;62304;47.662;18.324;2024-01-16T01:49:26;8.23;;;3.00;;
73951;SDS011;62304;47.662;18.324;2024-01-16T01:52:33;7.32;;;2.90;;
73951;SDS011;62304;47.662;18.324;2024-01-16T01:55:36;6.50;;;2.67;;
73951;SDS011;62304;47.662;18.324;2024-01-16T01:58:40;8.60;;;3.30;;
73951;SDS011;62304;47.662;18.324;2024-01-16T02:05:19;6.97;;;3.20;;
73951;SDS011;62304;47.662;18.324;2024-01-16T02:08:23;4.90;;;1.87;;
73951;SDS011;62304;47.662;18.324;2024-01-16T02:11:27;4.82;;;2.15;;
73951;SDS011;62304;47.662;18.324;2024-01-16T02:14:30;7.72;;;2.80;;
73951;SDS011;62304;47.662;18.324;2024-01-16T02:17:33;7.65;;;2.90;;
73951;SDS011;62304;47.662;18.324;2024-01-16T02:20:37;7.18;;;2.85;;
73951;SDS011;62304;47.662;18.324;2024-01-16T02:23:40;7.62;;;2.83;;
73951;SDS011;62304;47.662;18.324;2024-01-16T02:26:44;9.18;;;3.00;;
73951;SDS011;62304;47.662;18.324;2024-01-16T02:29:47;9.17;;;3.30;;
73951;SDS011;62304;47.662;18.324;2024-01-16T02:32:51;7.18;;;3.22;;
73951;SDS011;62304;47.662;18.324;2024-01-16T02:35:54;6.80;;;2.83;;
73951;SDS011;62304;47.662;18.324;2024-01-16T02:38:57;8.38;;;3.10;;
73951;SDS011;62304;47.662;18.324;2024-01-16T02:42:00;10.27;;;3.20;;
73951;SDS011;62304;47.662;18.324;2024-01-16T02:45:04;10.35;;;3.65;;
73951;SDS011;62304;47.662;18.324;2024-01-16T02:48:08;8.30;;;2.90;;
73951;SDS011;62304;47.662;18.324;2024-01-16T02:51:12;9.43;;;3.47;;
73951;SDS011;62304;47.662;18.324;2024-01-16T02:54:15;8.90;;;2.97;;
73951;SDS011;62304;47.662;18.324;2024-01-16T02:57:18;6.22;;;2.72;;
73951;SDS011;62304;47.662;18.324;2024-01-16T03:00:21;6.80;;;2.97;;
73951;SDS011;62304;47.662;18.324;2024-01-16T03:03:26;6.22;;;2.58;;
73951;SDS011;62304;47.662;18.324;2024-01-16T03:06:29;3.30;;;1.03;;
73951;SDS011;62304;47.662;18.324;2024-01-16T03:09:33;5.47;;;2.03;;
73951;SDS011;62304;47.662;18.324;2024-01-16T03:12:35;6.00;;;2.15;;
73951;SDS011;62304;47.662;18.324;2024-01-16T03:15:39;7.78;;;2.60;;
73951;SDS011;62304;47.662;18.324;2024-01-16T03:18:42;5.55;;;1.85;;
73951;SDS011;62304;47.662;18.324;2024-01-16T03:21:45;5.97;;;1.87;;
73951;SDS011;62304;47.662;18.324;2024-01-16T03:24:48;5.82;;;2.60;;
73951;SDS011;62304;47.662;18.324;2024-01-16T03:27:51;4.93;;;1.87;;
73951;SDS011;62304;47.662;18.324;2024-01-16T03:30:54;6.70;;;2.47;;
73951;SDS011;62304;47.662;18.324;2024-01-16T03:33:58;5.57;;;1.95;;
73951;SDS011;62304;47.662;18.324;2024-01-16T03:37:02;5.12;;;1.90;;
73951;SDS011;62304;47.662;18.324;2024-01-16T03:40:06;4.23;;;1.67;;
73951;SDS011;62304;47.662;18.324;2024-01-16T03:43:09;5.82;;;2.10;;
73951;SDS011;62304;47.662;18.324;2024-01-16T03:46:13;7.57;;;2.28;;
73951;SDS011;62304;47.662;18.324;2024-01-16T03:49:16;5.45;;;2.22;;
73951;SDS011;62304;47.662;18.324;2024-01-16T03:52:19;4.77;;;2.10;;
73951;SDS011;62304;47.662;18.324;2024-01-16T03:55:22;8.02;;;3.33;;
73951;SDS011;62304;47.662;18.324;2024-01-16T03:58:25;7.15;;;3.08;;
73951;SDS011;62304;47.662;18.324;2024-01-16T04:01:37;5.20;;;2.37;;
73951;SDS011;62304;47.662;18.324;2024-01-16T04:04:57;6.20;;;2.35;;
73951;SDS011;62304;47.662;18.324;2024-01-16T04:08:00;7.47;;;2.70;;
73951;SDS011;62304;47.662;18.324;2024-01-16T04:11:04;6.45;;;2.33;;
73951;SDS011;62304;47.662;18.324;2024-01-16T04:14:07;7.43;;;2.80;;
73951;SDS011;62304;47.662;18.324;2024-01-16T04:17:10;6.65;;;2.50;;
73951;SDS011;62304;47.662;18.324;2024-01-16T04:20:13;11.25;;;3.12;;
73951;SDS011;62304;47.662;18.324;2024-01-16T04:23:16;6.95;;;2.70;;
73951;SDS011;62304;47.662;18.324;2024-01-16T04:26:19;6.50;;;2.67;;
73951;SDS011;62304;47.662;18.324;2024-01-16T04:29:24;3.33;;;1.17;;
73951;SDS011;62304;47.662;18.324;2024-01-16T04:32:27;5.12;;;1.87;;
73951;SDS011;62304;47.662;18.324;2024-01-16T04:35:31;3.30;;;1.02;;
73951;SDS011;62304;47.662;18.324;2024-01-16T04:38:34;6.70;;;1.80;;
73951;SDS011;62304;47.662;18.324;2024-01-16T04:41:37;2.87;;;0.65;;
73951;SDS011;62304;47.662;18.324;2024-01-16T04:44:40;3.75;;;1.27;;
73951;SDS011;62304;47.662;18.324;2024-01-16T04:47:44;2.92;;;0.82;;
73951;SDS011;62304;47.662;18.324;2024-01-16T04:50:47;5.80;;;1.63;;
73951;SDS011;62304;47.662;18.324;2024-01-16T04:53:50;5.37;;;2.05;;
73951;SDS011;62304;47.662;18.324;2024-01-16T04:56:53;6.55;;;1.65;;
73951;SDS011;62304;47.662;18.324;2024-01-16T04:59:57;9.65;;;3.83;;
73951;SDS011;62304;47.662;18.324;2024-01-16T05:03:08;8.30;;;2.97;;
73951;SDS011;62304;47.662;18.324;2024-01-16T05:06:13;4.78;;;1.42;;
73951;SDS011;62304;47.662;18.324;2024-01-16T05:09:20;5.70;;;2.45;;
73951;SDS011;62304;47.662;18.324;2024-01-16T05:12:23;5.57;;;1.00;;
73951;SDS011;62304;47.662;18.324;2024-01-16T05:15:26;5.00;;;1.80;;
73951;SDS011;62304;47.662;18.324;2024-01-16T05:18:29;5.30;;;2.00;;
73951;SDS011;62304;47.662;18.324;2024-01-16T05:21:33;2.67;;;0.80;;
73951;SDS011;62304;47.662;18.324;2024-01-16T05:24:36;4.80;;;1.27;;
73951;SDS011;62304;47.662;18.324;2024-01-16T05:27:39;6.37;;;2.10;;
73951;SDS011;62304;47.662;18.324;2024-01-16T05:30:43;2.97;;;0.80;;
73951;SDS011;62304;47.662;18.324;2024-01-16T05:33:46;4.22;;;1.30;;
73951;SDS011;62304;47.662;18.324;2024-01-16T05:36:49;1.80;;;0.53;;
73951;SDS011;62304;47.662;18.324;2024-01-16T05:39:52;4.82;;;1.05;;
73951;SDS011;62304;47.662;18.324;2024-01-16T05:42:56;4.87;;;1.85;;
73951;SDS011;62304;47.662;18.324;2024-01-16T05:45:59;6.00;;;2.40;;
73951;SDS011;62304;47.662;18.324;2024-01-16T05:49:03;6.63;;;2.77;;
73951;SDS011;62304;47.662;18.324;2024-01-16T05:52:07;7.05;;;2.87;;
73951;SDS011;62304;47.662;18.324;2024-01-16T05:55:10;7.12;;;2.95;;
73951;SDS011;62304;47.662;18.324;2024-01-16T05:58:13;6.93;;;2.70;;
73951;SDS011;62304;47.662;18.324;2024-01-16T06:01:19;8.60;;;3.22;;
73951;SDS011;62304;47.662;18.324;2024-01-16T06:04:33;7.68;;;3.22;;
73951;SDS011;62304;47.662;18.324;2024-01-16T06:07:40;6.60;;;3.00;;
73951;SDS011;62304;47.662;18.324;2024-01-16T06:10:43;5.73;;;2.13;;
73951;SDS011;62304;47.662;18.324;2024-01-16T06:13:46;6.30;;;2.28;;
73951;SDS011;62304;47.662;18.324;2024-01-16T06:16:50;5.60;;;1.90;;
73951;SDS011;62304;47.662;18.324;2024-01-16T06:19:53;4.35;;;1.67;;
73951;SDS011;62304;47.662;18.324;2024-01-16T06:22:56;8.45;;;2.92;;
73951;SDS011;62304;47.662;18.324;2024-01-16T06:25:59;6.37;;;2.50;;
73951;SDS011;62304;47.662;18.324;2024-01-16T06:29:03;5.25;;;1.73;;
73951;SDS011;62304;47.662;18.324;2024-01-16T06:32:08;5.80;;;2.60;;
73951;SDS011;62304;47.662;18.324;2024-01-16T06:35:12;6.47;;;2.30;;
73951;SDS011;62304;47.662;18.324;2024-01-16T06:38:15;6.28;;;2.50;;
73951;SDS011;62304;47.662;18.324;2024-01-16T06:41:19;6.03;;;2.12;;
73951;SDS011;62304;47.662;18.324;2024-01-16T06:44:22;6.67;;;2.40;;
73951;SDS011;62304;47.662;18.324;2024-01-16T06:47:25;7.32;;;2.30;;
73951;SDS011;62304;47.662;18.324;2024-01-16T06:50:28;3.10;;;1.23;;
73951;SDS011;62304;47.662;18.324;2024-01-16T06:53:32;8.68;;;2.20;;
73951;SDS011;62304;47.662;18.324;2024-01-16T06:56:34;6.80;;;1.55;;
73951;SDS011;62304;47.662;18.324;2024-01-16T06:59:38;3.55;;;1.37;;
73951;SDS011;62304;47.662;18.324;2024-01-16T07:02:41;6.78;;;2.03;;
73951;SDS011;62304;47.662;18.324;2024-01-16T07:05:46;10.33;;;3.83;;
73951;SDS011;62304;47.662;18.324;2024-01-16T07:08:50;22.58;;;6.25;;
73951;SDS011;62304;47.662;18.324;2024-01-16T07:11:53;8.65;;;2.53;;
73951;SDS011;62304;47.662;18.324;2024-01-16T07:14:57;4.70;;;1.90;;
73951;SDS011;62304;47.662;18.324;2024-01-16T07:18:00;5.62;;;2.28;;
73951;SDS011;62304;47.662;18.324;2024-01-16T07:21:03;7.25;;;2.22;;
73951;SDS011;62304;47.662;18.324;2024-01-16T07:24:06;7.05;;;3.17;;
73951;SDS011;62304;47.662;18.324;2024-01-16T07:27:10;9.70;;;3.17;;
73951;SDS011;62304;47.662;18.324;2024-01-16T07:30:13;8.90;;;4.12;;
73951;SDS011;62304;47.662;18.324;2024-01-16T07:33:16;7.05;;;2.80;;
73951;SDS011;62304;47.662;18.324;2024-01-16T07:36:19;3.83;;;1.35;;
73951;SDS011;62304;47.662;18.324;2024-01-16T07:39:22;10.18;;;3.90;;
73951;SDS011;62304;47.662;18.324;2024-01-16T07:42:25;5.78;;;2.03;;
73951;SDS011;62304;47.662;18.324;2024-01-16T07:45:28;11.30;;;3.20;;
73951;SDS011;62304;47.662;18.324;2024-01-16T07:48:31;9.43;;;3.15;;
73951;SDS011;62304;47.662;18.324;2024-01-16T07:51:35;12.25;;;4.47;;
73951;SDS011;62304;47.662;18.324;2024-01-16T07:54:38;13.62;;;4.65;;
73951;SDS011;62304;47.662;18.324;2024-01-16T07:57:41;12.90;;;4.15;;
73951;SDS011;62304;47.662;18.324;2024-01-16T08:00:45;13.18;;;5.35;;
73951;SDS011;62304;47.662;18.324;2024-01-16T08:03:49;14.15;;;5.62;;
73951;SDS011;62304;47.662;18.324;2024-01-16T08:06:52;17.90;;;5.93;;
73951;SDS011;62304;47.662;18.324;2024-01-16T08:09:56;19.33;;;7.18;;
73951;SDS011;62304;47.662;18.324;2024-01-16T08:12:59;22.85;;;7.40;;
73951;SDS011;62304;47.662;18.324;2024-01-16T08:16:02;15.40;;;6.05;;
73951;SDS011;62304;47.662;18.324;2024-01-16T08:19:05;14.20;;;4.28;;
73951;SDS011;62304;47.662;18.324;2024-01-16T08:22:09;14.65;;;5.40;;
73951;SDS011;62304;47.662;18.324;2024-01-16T08:25:12;9.23;;;3.10;;
73951;SDS011;62304;47.662;18.324;2024-01-16T08:28:15;17.95;;;5.90;;
73951;SDS011;62304;47.662;18.324;2024-01-16T08:31:19;15.20;;;5.40;;
73951;SDS011;62304;47.662;18.324;2024-01-16T08:34:22;16.33;;;5.78;;
73951;SDS011;62304;47.662;18.324;2024-01-16T08:37:25;10.95;;;4.72;;
73951;SDS011;62304;47.662;18.324;2024-01-16T08:40:28;16.65;;;7.25;;
73951;SDS011;62304;47.662;18.324;2024-01-16T08:43:32;15.70;;;6.10;;
73951;SDS011;62304;47.662;18.324;2024-01-16T08:46:38;11.38;;;5.85;;
73951;SDS011;62304;47.662;18.324;2024-01-16T08:49:41;19.65;;;7.78;;
73951;SDS011;62304;47.662;18.324;2024-01-16T08:52:44;17.70;;;8.02;;
73951;SDS011;62304;47.662;18.324;2024-01-16T08:55:47;13.45;;;5.70;;
73951;SDS011;62304;47.662;18.324;2024-01-16T08:58:50;14.35;;;4.43;;
73951;SDS011;62304;47.662;18.324;2024-01-16T09:01:53;9.25;;;4.62;;
73951;SDS011;62304;47.662;18.324;2024-01-16T09:04:56;9.85;;;4.32;;
73951;SDS011;62304;47.662;18.324;2024-01-16T09:08:01;16.03;;;6.40;;
73951;SDS011;62304;47.662;18.324;2024-01-16T09:11:05;20.08;;;5.18;;
73951;SDS011;62304;47.662;18.324;2024-01-16T09:14:08;15.02;;;5.50;;
73951;SDS011;62304;47.662;18.324;2024-01-16T09:17:11;13.93;;;6.95;;
73951;SDS011;62304;47.662;18.324;2024-01-16T09:20:14;14.15;;;5.85;;
73951;SDS011;62304;47.662;18.324;2024-01-16T09:23:18;9.93;;;4.30;;
73951;SDS011;62304;47.662;18.324;2024-01-16T09:26:21;9.40;;;3.55;;
73951;SDS011;62304;47.662;18.324;2024-01-16T09:29:24;9.98;;;4.00;;
73951;SDS011;62304;47.662;18.324;2024-01-16T09:32:27;10.05;;;3.87;;
73951;SDS011;62304;47.662;18.324;2024-01-16T09:35:31;5.78;;;3.17;;
73951;SDS011;62304;47.662;18.324;2024-01-16T09:38:33;15.57;;;6.10;;
73951;SDS011;62304;47.662;18.324;2024-01-16T09:41:39;12.30;;;5.25;;
73951;SDS011;62304;47.662;18.324;2024-01-16T09:44:45;9.27;;;3.33;;
73951;SDS011;62304;47.662;18.324;2024-01-16T09:47:51;6.20;;;2.35;;
73951;SDS011;62304;47.662;18.324;2024-01-16T09:50:55;8.82;;;3.20;;
73951;SDS011;62304;47.662;18.324;2024-01-16T09:53:58;5.53;;;2.27;;
73951;SDS011;62304;47.662;18.324;2024-01-16T09:57:01;6.37;;;3.00;;
73951;SDS011;62304;47.662;18.324;2024-01-16T10:00:10;7.93;;;2.67;;
73951;SDS011;62304;47.662;18.324;2024-01-16T10:03:14;5.62;;;2.42;;
73951;SDS011;62304;47.662;18.324;2024-01-16T10:06:19;6.65;;;2.72;;
73951;SDS011;62304;47.662;18.324;2024-01-16T10:09:24;5.40;;;1.63;;
73951;SDS011;62304;47.662;18.324;2024-01-16T10:12:27;7.68;;;2.83;;
73951;SDS011;62304;47.662;18.324;2024-01-16T10:15:31;7.87;;;2.92;;
73951;SDS011;62304;47.662;18.324;2024-01-16T10:18:34;9.23;;;3.10;;
73951;SDS011;62304;47.662;18.324;2024-01-16T10:21:38;9.77;;;3.28;;
73951;SDS011;62304;47.662;18.324;2024-01-16T10:24:41;9.43;;;3.20;;
73951;SDS011;62304;47.662;18.324;2024-01-16T10:27:45;8.60;;;3.60;;
73951;SDS011;62304;47.662;18.324;2024-01-16T10:30:48;8.95;;;3.85;;
73951;SDS011;62304;47.662;18.324;2024-01-16T10:34:21;9.13;;;3.10;;
73951;SDS011;62304;47.662;18.324;2024-01-16T10:37:25;6.47;;;2.90;;
73951;SDS011;62304;47.662;18.324;2024-01-16T10:40:28;6.80;;;2.40;;
73951;SDS011;62304;47.662;18.324;2024-01-16T10:43:33;4.55;;;1.73;;
73951;SDS011;62304;47.662;18.324;2024-01-16T10:46:36;5.10;;;2.10;;
73951;SDS011;62304;47.662;18.324;2024-01-16T10:49:58;6.22;;;1.75;;
73951;SDS011;62304;47.662;18.324;2024-01-16T10:53:05;5.00;;;1.90;;
73951;SDS011;62304;47.662;18.324;2024-01-16T10:56:10;5.23;;;1.63;;
73951;SDS011;62304;47.662;18.324;2024-01-16T10:59:18;5.32;;;1.27;;
73951;SDS011;62304;47.662;18.324;2024-01-16T11:02:29;3.97;;;1.25;;
73951;SDS011;62304;47.662;18.324;2024-01-16T11:05:40;4.50;;;0.75;;
73951;SDS011;62304;47.662;18.324;2024-01-16T11:08:47;3.50;;;1.02;;
73951;SDS011;62304;47.662;18.324;2024-01-16T11:11:51;8.63;;;1.50;;
73951;SDS011;62304;47.662;18.324;2024-01-16T11:14:58;3.70;;;0.70;;
73951;SDS011;62304;47.662;18.324;2024-01-16T11:18:12;6.00;;;1.10;;
73951;SDS011;62304;47.662;18.324;2024-01-16T11:21:18;6.00;;;1.10;;
73951;SDS011;62304;47.662;18.324;2024-01-16T11:24:22;4.32;;;0.93;;
73951;SDS011;62304;47.662;18.324;2024-01-16T11:27:25;4.43;;;1.10;;
73951;SDS011;62304;47.662;18.324;2024-01-16T11:30:31;2.30;;;0.50;;
73951;SDS011;62304;47.662;18.324;2024-01-16T11:36:50;3.20;;;0.60;;
73951;SDS011;62304;47.662;18.324;2024-01-16T11:50:09;3.60;;;1.12;;
73951;SDS011;62304;47.662;18.324;2024-01-16T11:56:42;5.00;;;1.08;;
73951;SDS011;62304;47.662;18.324;2024-01-16T12:03:13;3.72;;;1.05;;
73951;SDS011;62304;47.662;18.324;2024-01-16T12:06:36;3.45;;;0.82;;
73951;SDS011;62304;47.662;18.324;2024-01-16T12:09:40;3.53;;;0.77;;
73951;SDS011;62304;47.662;18.324;2024-01-16T12:12:44;2.72;;;0.60;;
73951;SDS011;62304;47.662;18.324;2024-01-16T12:15:48;4.80;;;0.90;;
73951;SDS011;62304;47.662;18.324;2024-01-16T12:19:03;5.85;;;1.02;;
73951;SDS011;62304;47.662;18.324;2024-01-16T12:22:09;3.55;;;0.80;;
73951;SDS011;62304;47.662;18.324;2024-01-16T12:25:18;3.55;;;0.98;;
73951;SDS011;62304;47.662;18.324;2024-01-16T12:28:23;2.80;;;0.70;;
73951;SDS011;62304;47.662;18.324;2024-01-16T12:31:35;3.33;;;0.87;;
73951;SDS011;62304;47.662;18.324;2024-01-16T12:34:45;3.97;;;1.10;;
73951;SDS011;62304;47.662;18.324;2024-01-16T12:38:04;2.58;;;0.80;;
73951;SDS011;62304;47.662;18.324;2024-01-16T12:41:09;3.78;;;0.60;;
73951;SDS011;62304;47.662;18.324;2024-01-16T12:44:13;11.02;;;5.15;;
73951;SDS011;62304;47.662;18.324;2024-01-16T12:47:19;4.03;;;1.17;;
73951;SDS011;62304;47.662;18.324;2024-01-16T12:50:25;3.92;;;1.30;;
73951;SDS011;62304;47.662;18.324;2024-01-16T12:53:30;3.40;;;0.70;;
73951;SDS011;62304;47.662;18.324;2024-01-16T12:56:40;2.45;;;0.60;;
73951;SDS011;62304;47.662;18.324;2024-01-16T12:59:43;3.83;;;0.80;;
73951;SDS011;62304;47.662;18.324;2024-01-16T13:02:49;4.73;;;1.50;;
73951;SDS011;62304;47.662;18.324;2024-01-16T13:05:56;6.22;;;1.10;;
73951;SDS011;62304;47.662;18.324;2024-01-16T13:09:05;4.45;;;1.20;;
73951;SDS011;62304;47.662;18.324;2024-01-16T13:12:20;4.62;;;0.90;;
73951;SDS011;62304;47.662;18.324;2024-01-16T13:15:23;4.20;;;1.20;;
73951;SDS011;62304;47.662;18.324;2024-01-16T13:18:27;3.30;;;0.97;;
73951;SDS011;62304;47.662;18.324;2024-01-16T13:21:31;4.43;;;1.25;;
73951;SDS011;62304;47.662;18.324;2024-01-16T13:24:34;8.43;;;0.90;;
73951;SDS011;62304;47.662;18.324;2024-01-16T13:27:38;3.47;;;0.85;;
73951;SDS011;62304;47.662;18.324;2024-01-16T13:30:41;2.30;;;0.55;;
73951;SDS011;62304;47.662;18.324;2024-01-16T13:33:49;3.70;;;1.10;;
73951;SDS011;62304;47.662;18.324;2024-01-16T13:36:52;3.17;;;0.80;;
73951;SDS011;62304;47.662;18.324;2024-01-16T13:40:17;3.12;;;0.60;;
73951;SDS011;62304;47.662;18.324;2024-01-16T13:43:24;3.08;;;0.68;;
73951;SDS011;62304;47.662;18.324;2024-01-16T13:46:29;2.90;;;0.65;;
73951;SDS011;62304;47.662;18.324;2024-01-16T13:49:53;4.10;;;0.80;;
73951;SDS011;62304;47.662;18.324;2024-01-16T13:52:56;3.08;;;0.80;;
73951;SDS011;62304;47.662;18.324;2024-01-16T13:55:59;3.80;;;0.98;;
73951;SDS011;62304;47.662;18.324;2024-01-16T13:59:03;3.65;;;1.30;;
73951;SDS011;62304;47.662;18.324;2024-01-16T14:02:06;3.80;;;0.87;;
73951;SDS011;62304;47.662;18.324;2024-01-16T14:05:19;3.70;;;0.70;;
73951;SDS011;62304;47.662;18.324;2024-01-16T14:08:30;4.55;;;0.60;;
73951;SDS011;62304;47.662;18.324;2024-01-16T14:11:33;4.05;;;1.27;;
73951;SDS011;62304;47.662;18.324;2024-01-16T14:14:36;4.22;;;1.08;;
73951;SDS011;62304;47.662;18.324;2024-01-16T14:17:44;5.23;;;1.23;;
73951;SDS011;62304;47.662;18.324;2024-01-16T14:20:48;10.50;;;1.47;;
73951;SDS011;62304;47.662;18.324;2024-01-16T14:23:51;5.60;;;1.62;;
73951;SDS011;62304;47.662;18.324;2024-01-16T14:26:54;2.97;;;0.50;;
73951;SDS011;62304;47.662;18.324;2024-01-16T14:29:59;5.40;;;0.80;;
73951;SDS011;62304;47.662;18.324;2024-01-16T14:33:02;6.70;;;1.23;;
73951;SDS011;62304;47.662;18.324;2024-01-16T14:36:05;7.57;;;2.05;;
73951;SDS011;62304;47.662;18.324;2024-01-16T14:39:08;5.15;;;1.00;;
73951;SDS011;62304;47.662;18.324;2024-01-16T14:42:16;4.93;;;0.90;;
73951;SDS011;62304;47.662;18.324;2024-01-16T14:45:19;4.35;;;1.15;;
73951;SDS011;62304;47.662;18.324;2024-01-16T14:48:23;6.80;;;1.47;;
73951;SDS011;62304;47.662;18.324;2024-01-16T14:51:26;12.90;;;2.97;;
73951;SDS011;62304;47.662;18.324;2024-01-16T14:54:30;12.65;;;5.53;;
73951;SDS011;62304;47.662;18.324;2024-01-16T14:57:33;41.78;;;15.23;;
73951;SDS011;62304;47.662;18.324;2024-01-16T15:00:48;33.17;;;10.98;;
73951;SDS011;62304;47.662;18.324;2024-01-16T15:03:57;19.57;;;8.83;;
73951;SDS011;62304;47.662;18.324;2024-01-16T15:07:04;13.13;;;4.85;;
73951;SDS011;62304;47.662;18.324;2024-01-16T15:10:15;11.63;;;3.83;;
73951;SDS011;62304;47.662;18.324;2024-01-16T15:13:19;8.48;;;2.95;;
73951;SDS011;62304;47.662;18.324;2024-01-16T15:16:24;10.20;;;2.83;;
73951;SDS011;62304;47.662;18.324;2024-01-16T15:19:28;11.93;;;3.57;;
73951;SDS011;62304;47.662;18.324;2024-01-16T15:22:31;11.63;;;3.33;;
73951;SDS011;62304;47.662;18.324;2024-01-16T15:25:34;11.63;;;3.30;;
73951;SDS011;62304;47.662;18.324;2024-01-16T15:28:37;8.95;;;3.20;;
73951;SDS011;62304;47.662;18.324;2024-01-16T15:31:46;10.90;;;4.10;;
73951;SDS011;62304;47.662;18.324;2024-01-16T15:34:49;16.65;;;5.50;;
73951;SDS011;62304;47.662;18.324;2024-01-16T15:37:52;23.73;;;6.95;;
73951;SDS011;62304;47.662;18.324;2024-01-16T15:40:56;23.55;;;6.75;;
73951;SDS011;62304;47.662;18.324;2024-01-16T15:44:00;28.52;;;10.95;;
73951;SDS011;62304;47.662;18.324;2024-01-16T15:47:12;40.80;;;14.67;;
73951;SDS011;62304;47.662;18.324;2024-01-16T15:50:16;34.65;;;14.43;;
73951;SDS011;62304;47.662;18.324;2024-01-16T15:53:19;46.25;;;15.52;;
73951;SDS011;62304;47.662;18.324;2024-01-16T15:56:22;40.17;;;13.98;;
73951;SDS011;62304;47.662;18.324;2024-01-16T15:59:26;37.70;;;12.77;;
73951;SDS011;62304;47.662;18.324;2024-01-16T16:02:30;32.07;;;11.13;;
73951;SDS011;62304;47.662;18.324;2024-01-16T16:05:34;27.85;;;11.35;;
73951;SDS011;62304;47.662;18.324;2024-01-16T16:08:38;38.67;;;13.90;;
73951;SDS011;62304;47.662;18.324;2024-01-16T16:11:41;48.45;;;18.12;;
73951;SDS011;62304;47.662;18.324;2024-01-16T16:14:46;37.58;;;14.70;;
73951;SDS011;62304;47.662;18.324;2024-01-16T16:17:50;51.70;;;19.73;;
73951;SDS011;62304;47.662;18.324;2024-01-16T16:20:56;48.60;;;19.80;;
73951;SDS011;62304;47.662;18.324;2024-01-16T16:24:00;62.90;;;20.60;;
73951;SDS011;62304;47.662;18.324;2024-01-16T16:27:05;65.10;;;21.80;;
73951;SDS011;62304;47.662;18.324;2024-01-16T16:30:25;76.13;;;26.17;;
73951;SDS011;62304;47.662;18.324;2024-01-16T16:33:28;72.25;;;25.02;;
73951;SDS011;62304;47.662;18.324;2024-01-16T16:36:32;60.95;;;24.15;;
73951;SDS011;62304;47.662;18.324;2024-01-16T16:39:35;60.03;;;22.40;;
73951;SDS011;62304;47.662;18.324;2024-01-16T16:42:38;43.85;;;18.50;;
73951;SDS011;62304;47.662;18.324;2024-01-16T16:45:41;35.47;;;14.82;;
73951;SDS011;62304;47.662;18.324;2024-01-16T16:48:46;55.28;;;20.88;;
73951;SDS011;62304;47.662;18.324;2024-01-16T16:51:50;36.30;;;15.15;;
73951;SDS011;62304;47.662;18.324;2024-01-16T16:54:54;54.67;;;25.25;;
73951;SDS011;62304;47.662;18.324;2024-01-16T16:57:57;49.30;;;19.75;;
73951;SDS011;62304;47.662;18.324;2024-01-16T17:01:12;61.83;;;21.30;;
73951;SDS011;62304;47.662;18.324;2024-01-16T17:04:30;57.95;;;22.48;;
73951;SDS011;62304;47.662;18.324;2024-01-16T17:07:36;80.07;;;30.87;;
73951;SDS011;62304;47.662;18.324;2024-01-16T17:10:39;118.10;;;39.65;;
73951;SDS011;62304;47.662;18.324;2024-01-16T17:13:44;65.60;;;25.12;;
73951;SDS011;62304;47.662;18.324;2024-01-16T17:16:51;70.82;;;27.40;;
73951;SDS011;62304;47.662;18.324;2024-01-16T17:19:54;50.93;;;19.77;;
73951;SDS011;62304;47.662;18.324;2024-01-16T17:22:57;55.72;;;20.00;;
73951;SDS011;62304;47.662;18.324;2024-01-16T17:26:02;52.90;;;19.37;;
73951;SDS011;62304;47.662;18.324;2024-01-16T17:29:05;36.55;;;15.32;;
73951;SDS011;62304;47.662;18.324;2024-01-16T17:32:08;46.97;;;16.97;;
73951;SDS011;62304;47.662;18.324;2024-01-16T17:35:11;38.80;;;15.70;;
73951;SDS011;62304;47.662;18.324;2024-01-16T17:38:16;42.53;;;17.40;;
73951;SDS011;62304;47.662;18.324;2024-01-16T17:41:21;40.47;;;17.02;;
73951;SDS011;62304;47.662;18.324;2024-01-16T17:44:29;59.80;;;22.65;;
73951;SDS011;62304;47.662;18.324;2024-01-16T17:47:35;66.15;;;27.67;;
73951;SDS011;62304;47.662;18.324;2024-01-16T17:50:39;80.90;;;34.63;;
73951;SDS011;62304;47.662;18.324;2024-01-16T17:53:43;68.05;;;29.37;;
73951;SDS011;62304;47.662;18.324;2024-01-16T17:56:47;65.85;;;25.42;;
73951;SDS011;62304;47.662;18.324;2024-01-16T17:59:50;64.18;;;26.52;;
73951;SDS011;62304;47.662;18.324;2024-01-16T18:02:54;63.95;;;24.73;;
73951;SDS011;62304;47.662;18.324;2024-01-16T18:06:05;67.23;;;23.27;;
73951;SDS011;62304;47.662;18.324;2024-01-16T18:09:10;47.50;;;19.27;;
73951;SDS011;62304;47.662;18.324;2024-01-16T18:12:13;49.25;;;20.17;;
73951;SDS011;62304;47.662;18.324;2024-01-16T18:15:16;52.53;;;21.37;;
73951;SDS011;62304;47.662;18.324;2024-01-16T18:18:20;56.50;;;21.63;;
73951;SDS011;62304;47.662;18.324;2024-01-16T18:21:24;49.70;;;21.02;;
73951;SDS011;62304;47.662;18.324;2024-01-16T18:24:27;56.78;;;21.60;;
73951;SDS011;62304;47.662;18.324;2024-01-16T18:27:30;52.37;;;22.57;;
73951;SDS011;62304;47.662;18.324;2024-01-16T18:30:34;48.40;;;18.80;;
73951;SDS011;62304;47.662;18.324;2024-01-16T18:33:37;49.92;;;20.50;;